createdAt,value
2022-08-19T00:00:15.390Z,13.90
2022-08-19T00:03:04.208Z,15.60
2022-08-19T00:05:32.753Z,12.70
2022-08-19T00:08:00.738Z,14.40
2022-08-19T00:10:29.174Z,12.20
2022-08-19T00:12:57.655Z,15.10
2022-08-19T00:15:26.135Z,16.00
2022-08-19T00:17:55.266Z,13.30
2022-08-19T00:20:23.815Z,13.10
2022-08-19T00:22:53.119Z,12.40
2022-08-19T00:25:29.948Z,16.20
2022-08-19T00:28:00.595Z,20.70
2022-08-19T00:30:29.568Z,13.20
2022-08-19T00:32:58.911Z,14.70
2022-08-19T00:35:28.939Z,16.00
2022-08-19T00:37:57.378Z,14.20
2022-08-19T00:40:26.218Z,17.40
2022-08-19T00:42:54.997Z,15.20
2022-08-19T00:45:29.328Z,14.40
2022-08-19T00:47:57.387Z,14.10
2022-08-19T00:50:25.731Z,16.60
2022-08-19T00:52:54.625Z,14.00
2022-08-19T00:55:26.555Z,15.70
2022-08-19T00:58:01.585Z,13.90
2022-08-19T01:00:32.091Z,16.60
2022-08-19T01:03:00.591Z,14.50
2022-08-19T01:05:30.964Z,14.00
2022-08-19T01:08:02.159Z,16.80
2022-08-19T01:10:38.655Z,15.00
2022-08-19T01:13:07.254Z,15.70
2022-08-19T01:15:41.798Z,14.10
2022-08-19T01:18:13.424Z,14.00
2022-08-19T01:20:44.039Z,15.90
2022-08-19T01:23:13.600Z,15.60
2022-08-19T01:25:54.887Z,14.30
2022-08-19T01:28:33.912Z,13.80
2022-08-19T01:31:07.982Z,15.80
2022-08-19T01:33:36.436Z,17.40
2022-08-19T01:36:09.479Z,14.20
2022-08-19T01:38:44.462Z,14.00
2022-08-19T01:41:13.595Z,14.00
2022-08-19T01:44:13.225Z,14.90
2022-08-19T01:46:31.454Z,15.70
2022-08-19T01:49:01.452Z,13.40
2022-08-19T01:51:29.838Z,15.00
2022-08-19T01:54:10.467Z,18.80
2022-08-19T01:56:39.540Z,16.50
2022-08-19T01:59:18.117Z,14.90
2022-08-19T02:01:46.566Z,17.10
2022-08-19T02:04:15.795Z,14.40
2022-08-19T02:06:43.869Z,15.70
2022-08-19T02:09:12.052Z,14.20
2022-08-19T02:11:40.550Z,14.80
2022-08-19T02:14:10.064Z,15.30
2022-08-19T02:16:39.579Z,13.60
2022-08-19T02:19:07.865Z,13.80
2022-08-19T02:21:36.393Z,14.20
2022-08-19T02:24:05.082Z,14.20
2022-08-19T02:26:33.764Z,14.70
2022-08-19T02:29:02.171Z,14.30
2022-08-19T02:31:30.329Z,13.70
2022-08-19T02:33:58.372Z,15.10
2022-08-19T02:36:27.011Z,14.70
2022-08-19T02:38:57.150Z,16.60
2022-08-19T02:41:32.133Z,14.30
2022-08-19T02:44:22.838Z,19.30
2022-08-19T02:46:51.748Z,13.30
2022-08-19T02:49:21.179Z,13.40
2022-08-19T02:51:50.365Z,17.60
2022-08-19T02:54:18.690Z,15.00
2022-08-19T02:56:48.052Z,14.40
2022-08-19T02:59:16.465Z,17.20
2022-08-19T03:01:44.697Z,14.30
2022-08-19T03:04:15.547Z,16.70
2022-08-19T03:06:47.214Z,15.40
2022-08-19T03:09:17.270Z,15.60
2022-08-19T03:11:45.317Z,14.00
2022-08-19T03:14:14.258Z,16.20
2022-08-19T03:16:45.910Z,15.60
2022-08-19T03:19:15.523Z,14.00
2022-08-19T03:21:45.933Z,14.90
2022-08-19T03:24:15.306Z,15.80
2022-08-19T03:26:46.858Z,16.90
2022-08-19T03:29:30.901Z,14.30
2022-08-19T03:32:05.629Z,18.00
2022-08-19T03:34:35.905Z,15.40
2022-08-19T03:37:10.452Z,15.20
2022-08-19T03:39:41.520Z,15.50
2022-08-19T03:42:38.872Z,14.90
2022-08-19T03:44:59.630Z,15.50
2022-08-19T03:47:27.601Z,14.50
2022-08-19T03:49:55.867Z,14.40
2022-08-19T03:52:23.730Z,16.10
2022-08-19T03:54:51.605Z,17.30
2022-08-19T03:57:19.617Z,14.00
2022-08-19T03:59:47.983Z,15.00
2022-08-19T04:02:15.935Z,14.50
2022-08-19T04:04:44.787Z,14.20
2022-08-19T04:07:17.470Z,15.60
2022-08-19T04:09:45.392Z,18.20
2022-08-19T04:12:13.455Z,16.40
2022-08-19T04:14:42.379Z,15.70
2022-08-19T04:17:10.314Z,17.70
2022-08-19T04:22:31.181Z,15.00
2022-08-19T04:24:59.143Z,14.40
2022-08-19T04:27:27.654Z,13.80
2022-08-19T04:29:56.317Z,13.50
2022-08-19T04:32:24.305Z,13.70
2022-08-19T04:35:01.317Z,15.10
2022-08-19T04:37:40.549Z,16.90
2022-08-19T04:40:28.368Z,14.40
2022-08-19T04:42:57.719Z,15.20
2022-08-19T04:45:25.800Z,13.50
2022-08-19T04:48:26.207Z,14.00
2022-08-19T04:50:47.112Z,15.90
2022-08-19T04:53:15.326Z,21.40
2022-08-19T04:55:43.979Z,12.20
2022-08-19T04:58:12.035Z,14.60
2022-08-19T05:00:42.059Z,15.40
2022-08-19T05:03:10.342Z,12.30
2022-08-19T05:05:45.259Z,17.40
2022-08-19T05:08:30.853Z,11.30
2022-08-19T05:11:00.037Z,14.60
2022-08-19T05:13:29.069Z,10.70
2022-08-19T05:15:59.394Z,13.60
2022-08-19T05:18:47.000Z,10.30
2022-08-19T05:21:36.513Z,16.60
2022-08-19T05:24:10.150Z,14.60
2022-08-19T05:26:40.395Z,10.60
2022-08-19T05:29:11.446Z,11.80
2022-08-19T05:31:41.799Z,14.30
2022-08-19T05:34:18.276Z,13.30
2022-08-19T05:36:52.437Z,11.50
2022-08-19T05:39:22.430Z,12.20
2022-08-19T05:41:56.289Z,10.20
2022-08-19T05:44:32.595Z,11.10
2022-08-19T05:47:03.271Z,10.40
2022-08-19T05:49:33.842Z,11.30
2022-08-19T05:52:13.486Z,18.60
2022-08-19T05:54:42.802Z,14.00
2022-08-19T05:57:11.783Z,12.30
2022-08-19T05:59:41.424Z,10.50
2022-08-19T06:02:09.517Z,11.80
2022-08-19T06:04:37.554Z,11.10
2022-08-19T06:07:12.005Z,10.60
2022-08-19T06:09:43.715Z,11.30
2022-08-19T06:12:35.422Z,15.80
2022-08-19T06:15:09.096Z,12.90
2022-08-19T06:17:37.436Z,10.20
2022-08-19T06:20:09.912Z,10.60
2022-08-19T06:22:42.839Z,14.50
2022-08-19T06:25:11.807Z,9.10
2022-08-19T06:27:58.613Z,9.20
2022-08-19T06:30:28.717Z,9.40
2022-08-19T06:32:57.085Z,11.40
2022-08-19T06:35:26.702Z,10.40
2022-08-19T06:37:55.324Z,10.10
2022-08-19T06:40:23.655Z,8.90
2022-08-19T06:42:54.939Z,9.40
2022-08-19T06:45:34.553Z,8.40
2022-08-19T06:48:04.252Z,11.50
2022-08-19T06:50:32.315Z,10.60
2022-08-19T06:53:01.454Z,9.90
2022-08-19T06:55:33.351Z,11.60
2022-08-19T06:58:06.158Z,16.00
2022-08-19T07:00:35.098Z,11.40
2022-08-19T07:03:07.806Z,13.40
2022-08-19T07:05:45.614Z,10.80
2022-08-19T07:08:15.095Z,11.50
2022-08-19T07:10:47.159Z,15.70
2022-08-19T07:13:15.266Z,13.10
2022-08-19T07:15:43.949Z,10.60
2022-08-19T07:18:12.153Z,11.40
2022-08-19T07:20:41.806Z,13.30
2022-08-19T07:23:16.099Z,10.90
2022-08-19T07:25:53.050Z,11.20
2022-08-19T07:28:24.453Z,10.50
2022-08-19T07:30:54.286Z,11.20
2022-08-19T07:33:23.525Z,10.80
2022-08-19T07:35:51.562Z,12.40
2022-08-19T07:38:19.727Z,12.50
2022-08-19T07:40:47.635Z,11.10
2022-08-19T07:43:17.315Z,11.20
2022-08-19T07:45:48.165Z,9.30
2022-08-19T07:48:16.210Z,9.30
2022-08-19T07:50:44.902Z,11.60
2022-08-19T07:53:13.676Z,9.30
2022-08-19T07:55:44.023Z,11.80
2022-08-19T07:58:15.602Z,11.20
2022-08-19T08:00:44.850Z,11.70
2022-08-19T08:03:13.562Z,8.20
2022-08-19T08:06:00.155Z,9.70
2022-08-19T08:08:47.957Z,9.80
2022-08-19T08:11:21.376Z,10.20
2022-08-19T08:14:00.394Z,14.70
2022-08-19T08:16:31.339Z,9.00
2022-08-19T08:18:59.530Z,11.50
2022-08-19T08:21:27.750Z,10.70
2022-08-19T08:23:56.858Z,11.30
2022-08-19T08:26:26.218Z,9.20
2022-08-19T08:28:54.700Z,8.00
2022-08-19T08:31:23.289Z,11.40
2022-08-19T08:33:51.213Z,11.50
2022-08-19T08:36:19.211Z,14.70
2022-08-19T08:38:47.245Z,13.70
2022-08-19T08:41:29.506Z,10.70
2022-08-19T08:43:58.515Z,7.80
2022-08-19T08:46:30.971Z,9.60
2022-08-19T08:49:08.560Z,8.00
2022-08-19T08:51:47.656Z,9.80
2022-08-19T08:54:20.769Z,8.30
2022-08-19T08:56:53.722Z,9.60
2022-08-19T08:59:27.809Z,9.00
2022-08-19T09:01:55.861Z,12.80
2022-08-19T09:04:23.971Z,9.20
2022-08-19T09:07:35.396Z,12.60
2022-08-19T09:10:26.824Z,9.90
2022-08-19T09:13:16.765Z,11.10
2022-08-19T09:16:02.558Z,13.40
2022-08-19T09:18:54.367Z,9.60
2022-08-19T09:21:30.447Z,11.10
2022-08-19T09:24:03.385Z,14.00
2022-08-19T09:26:52.515Z,9.80
2022-08-19T09:29:22.807Z,11.70
2022-08-19T09:31:51.194Z,12.30
2022-08-19T09:34:22.224Z,12.00
2022-08-19T09:36:54.818Z,11.70
2022-08-19T09:39:23.778Z,10.00
2022-08-19T09:41:52.428Z,11.20
2022-08-19T09:44:21.937Z,7.60
2022-08-19T09:46:51.961Z,13.30
2022-08-19T09:49:24.415Z,7.40
2022-08-19T09:51:57.263Z,9.50
2022-08-19T09:54:25.504Z,8.80
2022-08-19T09:56:55.871Z,8.50
2022-08-19T09:59:23.826Z,9.50
2022-08-19T10:01:52.731Z,8.70
2022-08-19T10:04:22.484Z,9.10
2022-08-19T10:06:53.596Z,12.40
2022-08-19T10:09:33.590Z,9.40
2022-08-19T10:12:06.059Z,9.70
2022-08-19T10:14:35.611Z,14.70
2022-08-19T10:17:17.926Z,8.50
2022-08-19T10:19:53.438Z,8.60
2022-08-19T10:22:25.624Z,8.10
2022-08-19T10:24:54.710Z,8.40
2022-08-19T10:27:23.375Z,6.90
2022-08-19T10:29:51.370Z,11.80
2022-08-19T10:32:19.334Z,10.90
2022-08-19T10:35:05.330Z,6.60
2022-08-19T10:37:35.222Z,6.60
2022-08-19T10:40:05.504Z,12.10
2022-08-19T10:42:33.556Z,9.30
2022-08-19T10:45:01.467Z,10.10
2022-08-19T10:47:31.510Z,7.50
2022-08-19T10:50:18.843Z,7.90
2022-08-19T10:52:50.517Z,7.20
2022-08-19T10:55:43.118Z,6.50
2022-08-19T10:58:17.945Z,8.80
2022-08-19T11:00:56.491Z,9.80
2022-08-19T11:03:26.025Z,12.80
2022-08-19T11:06:05.592Z,5.70
2022-08-19T11:08:36.012Z,9.00
2022-08-19T11:11:06.358Z,7.00
2022-08-19T11:13:41.374Z,7.20
2022-08-19T11:16:15.255Z,8.10
2022-08-19T11:18:56.140Z,9.30
2022-08-19T11:21:28.138Z,10.90
2022-08-19T11:23:58.805Z,6.90
2022-08-19T11:26:28.016Z,12.40
2022-08-19T11:28:57.589Z,9.10
2022-08-19T11:31:34.104Z,8.50
2022-08-19T11:34:05.055Z,11.20
2022-08-19T11:36:33.770Z,7.20
2022-08-19T11:39:02.835Z,6.10
2022-08-19T11:41:30.817Z,6.10
2022-08-19T11:43:59.094Z,8.10
2022-08-19T11:46:30.595Z,8.30
2022-08-19T11:49:01.600Z,11.70
2022-08-19T11:51:31.075Z,8.60
2022-08-19T11:54:00.885Z,7.30
2022-08-19T11:56:29.874Z,8.90
2022-08-19T11:58:59.210Z,8.50
2022-08-19T12:01:27.959Z,10.10
2022-08-19T12:03:57.681Z,7.20
2022-08-19T12:06:30.246Z,10.20
2022-08-19T12:09:00.060Z,6.50
2022-08-19T12:11:31.200Z,9.50
2022-08-19T12:14:02.656Z,12.40
2022-08-19T12:16:32.980Z,7.60
2022-08-19T12:19:05.234Z,8.40
2022-08-19T12:21:36.727Z,6.60
2022-08-19T12:24:06.771Z,8.40
2022-08-19T12:26:36.032Z,9.20
2022-08-19T12:29:23.915Z,7.80
2022-08-19T12:31:52.699Z,10.70
2022-08-19T12:34:21.391Z,10.20
2022-08-19T12:36:50.629Z,7.90
2022-08-19T12:39:19.202Z,10.00
2022-08-19T12:41:54.042Z,9.60
2022-08-19T12:44:29.616Z,10.50
2022-08-19T12:47:00.955Z,8.40
2022-08-19T12:49:51.074Z,10.40
2022-08-19T12:52:23.449Z,5.60
2022-08-19T12:54:55.535Z,9.90
2022-08-19T12:57:32.221Z,12.00
2022-08-19T13:00:08.059Z,9.30
2022-08-19T13:02:38.831Z,14.20
2022-08-19T13:05:11.006Z,9.50
2022-08-19T13:07:40.764Z,8.50
2022-08-19T13:10:12.951Z,9.00
2022-08-19T13:12:42.198Z,9.30
2022-08-19T13:15:11.369Z,10.00
2022-08-19T13:17:41.601Z,9.90
2022-08-19T13:20:10.683Z,11.10
2022-08-19T13:22:38.958Z,7.10
2022-08-19T13:25:08.568Z,9.10
2022-08-19T13:27:37.827Z,9.10
2022-08-19T13:30:27.298Z,7.70
2022-08-19T13:33:16.030Z,9.10
2022-08-19T13:35:58.131Z,7.90
2022-08-19T13:38:26.646Z,9.00
2022-08-19T13:40:56.546Z,12.60
2022-08-19T13:43:27.785Z,10.00
2022-08-19T13:45:57.826Z,8.10
2022-08-19T13:48:28.090Z,7.60
2022-08-19T13:50:56.817Z,9.30
2022-08-19T13:53:24.858Z,9.40
2022-08-19T13:55:55.302Z,10.40
2022-08-19T13:58:24.011Z,9.70
2022-08-19T14:00:52.409Z,6.30
2022-08-19T14:03:20.679Z,5.70
2022-08-19T14:05:48.670Z,11.40
2022-08-19T14:08:17.200Z,10.20
2022-08-19T14:10:46.449Z,11.30
2022-08-19T14:13:18.992Z,10.70
2022-08-19T14:15:48.655Z,8.20
2022-08-19T14:18:19.277Z,7.30
2022-08-19T14:20:47.626Z,8.90
2022-08-19T14:23:15.762Z,12.30
2022-08-19T14:25:45.602Z,7.00
2022-08-19T14:28:13.505Z,8.10
2022-08-19T14:30:41.445Z,9.20
2022-08-19T14:33:09.643Z,7.90
2022-08-19T14:35:39.156Z,8.90
2022-08-19T14:38:15.785Z,8.90
2022-08-19T14:40:43.988Z,6.90
2022-08-19T14:43:11.832Z,12.90
2022-08-19T14:45:40.786Z,10.80
2022-08-19T14:48:12.496Z,9.00
2022-08-19T14:50:47.889Z,8.30
2022-08-19T14:53:17.375Z,8.30
2022-08-19T14:55:47.196Z,5.50
2022-08-19T14:58:29.419Z,6.00
2022-08-19T15:01:00.755Z,8.30
2022-08-19T15:03:30.925Z,8.40
2022-08-19T15:06:01.705Z,8.60
2022-08-19T15:08:31.705Z,6.30
2022-08-19T15:11:00.048Z,8.50
2022-08-19T15:13:29.028Z,7.60
2022-08-19T15:15:58.399Z,8.40
2022-08-19T15:18:26.538Z,7.40
2022-08-19T15:20:56.016Z,9.50
2022-08-19T15:23:24.514Z,7.80
2022-08-19T15:25:56.692Z,6.90
2022-08-19T15:28:27.200Z,5.70
2022-08-19T15:30:55.187Z,9.40
2022-08-19T15:33:23.690Z,8.80
2022-08-19T15:35:51.897Z,8.30
2022-08-19T15:38:26.044Z,10.60
2022-08-19T15:40:54.225Z,5.50
2022-08-19T15:43:22.723Z,5.80
2022-08-19T15:45:51.236Z,7.70
2022-08-19T15:48:19.909Z,4.70
2022-08-19T15:50:48.160Z,8.20
2022-08-19T15:53:16.538Z,6.70
2022-08-19T15:55:48.170Z,8.50
2022-08-19T15:58:35.072Z,7.40
2022-08-19T16:01:27.582Z,4.50
2022-08-19T16:04:17.242Z,8.00
2022-08-19T16:06:51.191Z,6.20
2022-08-19T16:09:27.029Z,9.70
2022-08-19T16:12:02.720Z,9.80
2022-08-19T16:14:35.875Z,9.90
2022-08-19T16:17:04.852Z,7.50
2022-08-19T16:19:33.831Z,7.20
2022-08-19T16:22:02.305Z,12.20
2022-08-19T16:24:30.451Z,9.30
2022-08-19T16:26:58.703Z,7.60
2022-08-19T16:29:33.754Z,7.60
2022-08-19T16:32:10.671Z,5.70
2022-08-19T16:34:41.712Z,9.00
2022-08-19T16:37:11.107Z,8.30
2022-08-19T16:39:40.942Z,9.00
2022-08-19T16:42:14.584Z,8.80
2022-08-19T16:44:45.731Z,6.30
2022-08-19T16:47:17.049Z,8.40
2022-08-19T16:49:54.572Z,5.10
2022-08-19T16:52:28.219Z,8.10
2022-08-19T16:54:57.128Z,10.20
2022-08-19T16:57:25.930Z,8.30
2022-08-19T16:59:54.052Z,5.40
2022-08-19T17:02:23.657Z,8.10
2022-08-19T17:04:59.478Z,4.50
2022-08-19T17:07:32.266Z,9.90
2022-08-19T17:10:05.410Z,6.20
2022-08-19T17:12:34.689Z,10.10
2022-08-19T17:15:03.721Z,11.90
2022-08-19T17:17:32.111Z,6.20
2022-08-19T17:20:03.192Z,8.20
2022-08-19T17:22:31.160Z,6.30
2022-08-19T17:24:59.074Z,5.60
2022-08-19T17:27:31.985Z,7.40
2022-08-19T17:30:05.411Z,7.00
2022-08-19T17:32:35.887Z,6.30
2022-08-19T17:35:04.930Z,8.10
2022-08-19T17:37:33.978Z,9.40
2022-08-19T17:40:09.198Z,8.60
2022-08-19T17:42:37.986Z,7.00
2022-08-19T17:45:06.928Z,7.10
2022-08-19T17:47:37.335Z,13.30
2022-08-19T17:50:08.466Z,11.80
2022-08-19T17:52:38.766Z,6.30
2022-08-19T17:55:07.608Z,7.40
2022-08-19T17:57:35.677Z,13.10
2022-08-19T18:00:08.863Z,9.70
2022-08-19T18:02:50.695Z,7.00
2022-08-19T18:05:22.051Z,9.40
2022-08-19T18:07:52.371Z,12.40
2022-08-19T18:10:24.377Z,7.80
2022-08-19T18:13:02.971Z,11.60
2022-08-19T18:15:45.815Z,6.50
2022-08-19T18:18:15.140Z,5.60
2022-08-19T18:20:45.155Z,7.90
2022-08-19T18:23:44.528Z,8.00
2022-08-19T18:26:02.169Z,10.60
2022-08-19T18:28:31.072Z,10.50
2022-08-19T18:31:00.015Z,7.30
2022-08-19T18:33:28.339Z,8.70
2022-08-19T18:35:56.649Z,11.40
2022-08-19T18:38:43.935Z,10.20
2022-08-19T18:41:31.459Z,8.70
2022-08-19T18:44:17.898Z,10.60
2022-08-19T18:47:04.975Z,8.40
2022-08-19T18:49:34.380Z,7.60
2022-08-19T18:52:03.885Z,7.80
2022-08-19T18:54:32.806Z,8.40
2022-08-19T18:57:01.044Z,6.70
2022-08-19T18:59:33.158Z,8.90
2022-08-19T19:02:02.452Z,8.60
2022-08-19T19:04:36.895Z,9.50
2022-08-19T19:07:06.163Z,9.00
2022-08-19T19:09:38.691Z,8.70
2022-08-19T19:12:10.835Z,8.30
2022-08-19T19:14:50.257Z,5.40
2022-08-19T19:17:23.295Z,9.00
2022-08-19T19:19:51.479Z,13.00
2022-08-19T19:22:22.654Z,6.90
2022-08-19T19:24:52.066Z,5.70
2022-08-19T19:27:21.552Z,9.10
2022-08-19T19:29:52.256Z,7.40
2022-08-19T19:32:26.365Z,11.00
2022-08-19T19:34:54.658Z,11.70
2022-08-19T19:37:23.133Z,10.50
2022-08-19T19:39:51.313Z,9.30
2022-08-19T19:42:23.839Z,7.40
2022-08-19T19:44:55.446Z,9.80
2022-08-19T19:47:24.789Z,12.80
2022-08-19T19:50:15.263Z,9.10
2022-08-19T19:52:46.318Z,8.70
2022-08-19T19:55:19.605Z,9.30
2022-08-19T19:58:28.824Z,6.90
2022-08-19T20:00:59.098Z,8.70
2022-08-19T20:03:30.146Z,10.00
2022-08-19T20:06:00.572Z,8.80
2022-08-19T20:08:48.299Z,5.90
2022-08-19T20:11:31.116Z,9.60
2022-08-19T20:14:01.945Z,7.20
2022-08-19T20:16:31.615Z,9.10
2022-08-19T20:19:01.579Z,8.90
2022-08-19T20:21:34.045Z,8.80
2022-08-19T20:24:09.067Z,7.10
2022-08-19T20:26:38.995Z,11.50
2022-08-19T20:29:13.383Z,6.50
2022-08-19T20:31:57.293Z,10.30
2022-08-19T20:34:28.526Z,9.40
2022-08-19T20:36:56.787Z,6.30
2022-08-19T20:39:25.057Z,10.00
2022-08-19T20:41:53.739Z,12.90
2022-08-19T20:44:21.953Z,9.50
2022-08-19T20:46:54.251Z,12.60
2022-08-19T20:49:27.033Z,11.90
2022-08-19T20:51:56.873Z,8.30
2022-08-19T20:54:26.277Z,9.80
2022-08-19T20:56:55.066Z,7.80
2022-08-19T20:59:24.477Z,10.50
2022-08-19T21:01:53.355Z,7.30
2022-08-19T21:04:22.271Z,9.20
2022-08-19T21:06:50.748Z,9.60
2022-08-19T21:09:19.625Z,9.20
2022-08-19T21:11:48.208Z,7.40
2022-08-19T21:14:17.495Z,7.80
2022-08-19T21:16:46.491Z,7.90
2022-08-19T21:19:14.873Z,8.00
2022-08-19T21:21:43.052Z,9.80
2022-08-19T21:24:11.215Z,8.70
2022-08-19T21:26:40.415Z,10.40
2022-08-19T21:29:08.378Z,11.50
2022-08-19T21:31:36.466Z,7.60
2022-08-19T21:34:05.620Z,8.00
2022-08-19T21:36:33.612Z,14.00
2022-08-19T21:39:02.476Z,6.40
2022-08-19T21:41:30.895Z,9.10
2022-08-19T21:43:59.060Z,9.40
2022-08-19T21:46:27.336Z,7.10
2022-08-19T21:48:55.541Z,10.70
2022-08-19T21:51:23.791Z,11.30
2022-08-19T21:53:52.942Z,9.10
2022-08-19T21:56:21.662Z,9.70
2022-08-19T21:58:50.355Z,8.30
2022-08-19T22:01:18.567Z,5.80
2022-08-19T22:03:46.796Z,12.50
2022-08-19T22:06:14.769Z,7.20
2022-08-19T22:08:45.102Z,10.00
2022-08-19T22:11:13.503Z,9.60
2022-08-19T22:13:41.755Z,9.40
2022-08-19T22:16:11.055Z,13.00
2022-08-19T22:18:39.334Z,8.50
2022-08-19T22:21:11.688Z,11.10
2022-08-19T22:23:42.309Z,9.10
2022-08-19T22:26:12.144Z,5.60
2022-08-19T22:28:41.140Z,5.70
2022-08-19T22:31:09.712Z,14.90
2022-08-19T22:33:38.654Z,8.30
2022-08-19T22:36:08.068Z,7.90
2022-08-19T22:38:38.473Z,8.60
2022-08-19T22:41:07.947Z,6.90
2022-08-19T22:43:37.846Z,7.00
2022-08-19T22:46:16.802Z,8.20
2022-08-19T22:48:47.964Z,6.90
2022-08-19T22:51:43.233Z,11.60
2022-08-19T22:54:11.411Z,10.60
2022-08-19T22:56:39.771Z,6.70
2022-08-19T22:59:08.939Z,8.80
2022-08-19T23:01:37.456Z,5.80
2022-08-19T23:04:05.929Z,10.50
2022-08-19T23:06:36.384Z,7.30
2022-08-19T23:09:08.753Z,8.30
2022-08-19T23:11:41.758Z,13.30
2022-08-19T23:14:11.742Z,7.50
2022-08-19T23:16:41.446Z,7.90
2022-08-19T23:19:12.175Z,9.70
2022-08-19T23:21:42.704Z,9.10
2022-08-19T23:24:11.798Z,7.00
2022-08-19T23:27:00.277Z,7.60
2022-08-19T23:29:47.379Z,7.40
2022-08-19T23:32:19.179Z,10.00
2022-08-19T23:34:48.604Z,9.10
2022-08-19T23:37:16.598Z,6.70
2022-08-19T23:39:45.332Z,11.30
2022-08-19T23:42:13.974Z,6.40
2022-08-19T23:44:51.950Z,7.30
2022-08-19T23:47:21.789Z,9.10
2022-08-19T23:49:51.080Z,7.30
2022-08-19T23:52:20.069Z,7.90
2022-08-19T23:54:48.150Z,7.90
2022-08-19T23:57:16.342Z,6.50
2022-08-19T23:59:45.898Z,10.20
